Cedarbutte, South Dakota
Current Conditions -  °F | °C
As of 6:55 AM on Saturday 25 Oct 2014 (Local Time) from KPHP Reporting Station
Clear Clear  
Wind Chill: 28°   Ceiling: Unl
Heat Index: 33°   Visibility: 10mi
Dew Point: 30°   Wind: 6mph
Humidity: 89%   Direction: 260°W
Pressure: 30.15"   Gusts: NA
Location:  43.6197°N, 100.883°W
Report Text: KPHP 251155Z AUTO 26005KT 10SM CLR 01/M01 A3015 RMK AO2 SLP213 T00061011 10089 20006 53002
Loading
Personal Weather Stations






























Interactive Weather Map
Tropical Storm Tracking
New forecast layout! Learn more

10-Day Weather Forecast

Advertisements
Track Severe Weather on mobile